createdAt,value
2023-02-08T00:00:35.630Z,100283.66
2023-02-08T00:03:02.316Z,100270.91
2023-02-08T00:05:28.937Z,100275.13
2023-02-08T00:07:55.627Z,100277.56
2023-02-08T00:10:22.320Z,100279.31
2023-02-08T00:12:49.100Z,100277.63
2023-02-08T00:15:15.771Z,100286.09
2023-02-08T00:17:42.451Z,100284.44
2023-02-08T00:20:09.896Z,100279.25
2023-02-08T00:22:36.687Z,100287.69
2023-02-08T00:25:03.516Z,100297.91
2023-02-08T00:27:30.193Z,100302.94
2023-02-08T00:29:56.902Z,100254.56
2023-02-08T00:32:23.663Z,100298.63
2023-02-08T00:34:50.702Z,100302.84
2023-02-08T00:37:17.749Z,100301.06
2023-02-08T00:39:44.405Z,100304.28
2023-02-08T00:42:11.061Z,100300.78
2023-02-08T00:44:39.463Z,100308.47
2023-02-08T00:47:06.158Z,100314.31
2023-02-08T00:49:32.840Z,100320.19
2023-02-08T00:51:59.607Z,100304.28
2023-02-08T00:54:26.206Z,100318.72
2023-02-08T00:56:52.858Z,100313.66
2023-02-08T00:59:19.501Z,100312.03
2023-02-08T01:01:46.239Z,100316.25
2023-02-08T01:04:12.909Z,100311.16
2023-02-08T01:06:40.006Z,100308.59
2023-02-08T01:09:06.612Z,100311.13
2023-02-08T01:11:33.527Z,100315.28
2023-02-08T01:14:00.326Z,100316.16
2023-02-08T01:16:30.278Z,100314.41
2023-02-08T01:18:58.914Z,100318.59
2023-02-08T01:21:31.510Z,100320.28
2023-02-08T01:23:58.862Z,100312.69
2023-02-08T01:26:26.392Z,100315.13
2023-02-08T01:28:54.453Z,100310.94
2023-02-08T01:31:29.065Z,100314.25
2023-02-08T01:33:57.095Z,100309.97
2023-02-08T01:36:24.997Z,100314.97
2023-02-08T01:38:52.291Z,100315.81
2023-02-08T01:41:31.299Z,100311.63
2023-02-08T01:44:28.578Z,100304.78
2023-02-08T01:46:55.272Z,100310.66
2023-02-08T01:49:31.982Z,100303.09
2023-02-08T01:52:01.026Z,100306.50
2023-02-08T01:54:33.217Z,100299.81
2023-02-08T01:56:59.891Z,100304.06
2023-02-08T01:59:34.082Z,100299.03
2023-02-08T02:02:04.324Z,100301.63
2023-02-08T02:04:31.150Z,100299.88
2023-02-08T02:07:00.422Z,100281.06
2023-02-08T02:10:02.877Z,100302.25
2023-02-08T02:12:33.163Z,100308.13
2023-02-08T02:15:02.699Z,100303.03
2023-02-08T02:17:30.025Z,100300.63
2023-02-08T02:20:02.828Z,100306.50
2023-02-08T02:22:32.577Z,100304.06
2023-02-08T02:25:12.596Z,100307.44
2023-02-08T02:28:00.960Z,100298.09
2023-02-08T02:30:51.790Z,100304.72
2023-02-08T02:33:44.611Z,100305.59
2023-02-08T02:36:41.029Z,100301.31
2023-02-08T02:39:26.230Z,100308.09
2023-02-08T02:42:45.019Z,100308.03
2023-02-08T02:45:20.650Z,100296.94
2023-02-08T02:47:49.959Z,100307.97
2023-02-08T02:50:54.794Z,100308.03
2023-02-08T02:53:36.675Z,100305.31
2023-02-08T02:56:14.185Z,100298.59
2023-02-08T02:58:42.555Z,100297.56
2023-02-08T03:01:09.280Z,100306.00
2023-02-08T03:03:35.987Z,100295.97
2023-02-08T03:06:10.470Z,100301.81
2023-02-08T03:08:55.875Z,100301.00
2023-02-08T03:11:28.658Z,100298.50
2023-02-08T03:14:19.617Z,100296.88
2023-02-08T03:17:02.458Z,100295.00
2023-02-08T03:19:47.923Z,100296.75
2023-02-08T03:22:23.773Z,100305.13
2023-02-08T03:24:59.402Z,100295.88
2023-02-08T03:27:36.058Z,100302.47
2023-02-08T03:30:33.392Z,100304.09
2023-02-08T03:33:11.607Z,100302.34
2023-02-08T03:35:48.822Z,100298.94
2023-02-08T03:38:33.821Z,100285.53
2023-02-08T03:41:04.409Z,100306.69
2023-02-08T03:43:38.213Z,100309.22
2023-02-08T03:46:14.551Z,100310.00
2023-02-08T03:48:46.193Z,100307.50
2023-02-08T03:51:15.641Z,100312.56
2023-02-08T03:53:45.661Z,100299.97
2023-02-08T03:56:30.812Z,100292.19
2023-02-08T03:59:04.149Z,100304.81
2023-02-08T04:01:36.862Z,100299.03
2023-02-08T04:04:03.772Z,100308.25
2023-02-08T04:06:30.589Z,100304.00
2023-02-08T04:08:57.417Z,100297.16
2023-02-08T04:11:24.001Z,100283.72
2023-02-08T04:13:50.666Z,100291.38
2023-02-08T04:16:17.299Z,100288.75
2023-02-08T04:18:43.910Z,100279.50
2023-02-08T04:21:10.505Z,100282.88
2023-02-08T04:23:37.133Z,100281.16
2023-02-08T04:26:04.219Z,100285.22
2023-02-08T04:28:31.592Z,100280.09
2023-02-08T04:30:58.387Z,100286.03
2023-02-08T04:33:25.126Z,100280.78
2023-02-08T04:35:52.386Z,100263.94
2023-02-08T04:38:19.035Z,100281.78
2023-02-08T04:40:45.644Z,100287.75
2023-02-08T04:43:12.292Z,100252.09
2023-02-08T04:45:38.944Z,100286.06
2023-02-08T04:48:07.337Z,100287.72
2023-02-08T04:50:35.938Z,100262.84
2023-02-08T04:53:02.664Z,100275.75
2023-02-08T04:55:29.397Z,100277.53
2023-02-08T04:57:56.126Z,100277.56
2023-02-08T05:00:22.823Z,100276.69
2023-02-08T05:02:57.080Z,100268.28
2023-02-08T05:05:26.103Z,100271.56
2023-02-08T05:07:52.770Z,100278.34
2023-02-08T05:10:19.893Z,100273.28
2023-02-08T05:12:47.386Z,100269.84
2023-02-08T05:15:14.315Z,100275.59
2023-02-08T05:17:40.950Z,100263.69
2023-02-08T05:20:08.888Z,100265.47
2023-02-08T05:22:36.067Z,100283.97
2023-02-08T05:25:03.352Z,100272.91
2023-02-08T05:27:30.194Z,100273.78
2023-02-08T05:29:58.947Z,100250.00
2023-02-08T05:32:25.989Z,100265.38
2023-02-08T05:34:52.747Z,100276.53
2023-02-08T05:37:19.467Z,100279.91
2023-02-08T05:39:46.318Z,100255.28
2023-02-08T05:42:13.102Z,100278.88
2023-02-08T05:44:40.055Z,100271.38
2023-02-08T05:47:06.782Z,100273.88
2023-02-08T05:49:33.601Z,100283.94
2023-02-08T05:52:00.184Z,100278.78
2023-02-08T05:54:26.970Z,100278.78
2023-02-08T05:56:53.645Z,100277.13
2023-02-08T05:59:20.404Z,100285.53
2023-02-08T06:01:47.017Z,100287.97
2023-02-08T06:04:15.050Z,100289.63
2023-02-08T06:06:41.831Z,100301.41
2023-02-08T06:09:08.459Z,100309.69
2023-02-08T06:11:36.215Z,100307.13
2023-02-08T06:14:03.422Z,100307.28
2023-02-08T06:16:30.124Z,100305.75
2023-02-08T06:18:57.004Z,100309.22
2023-02-08T06:21:24.542Z,100310.00
2023-02-08T06:23:51.292Z,100295.59
2023-02-08T06:26:17.968Z,100318.41
2023-02-08T06:28:44.822Z,100308.16
2023-02-08T06:31:11.398Z,100297.88
2023-02-08T06:33:38.061Z,100307.22
2023-02-08T06:36:04.882Z,100308.97
2023-02-08T06:38:31.524Z,100303.88
2023-02-08T06:40:58.258Z,100311.34
2023-02-08T06:43:25.740Z,100307.94
2023-02-08T06:45:52.410Z,100307.00
2023-02-08T06:48:19.056Z,100302.00
2023-02-08T06:50:45.666Z,100296.38
2023-02-08T06:53:12.528Z,100299.69
2023-02-08T06:55:39.548Z,100307.22
2023-02-08T06:58:06.326Z,100307.94
2023-02-08T07:00:32.967Z,100306.22
2023-02-08T07:03:00.851Z,100300.38
2023-02-08T07:05:27.919Z,100286.72
2023-02-08T07:07:54.635Z,100306.50
2023-02-08T07:10:21.366Z,100309.03
2023-02-08T07:12:47.989Z,100311.44
2023-02-08T07:15:14.662Z,100300.47
2023-02-08T07:17:41.438Z,100308.34
2023-02-08T07:20:08.959Z,100308.31
2023-02-08T07:22:35.638Z,100310.00
2023-02-08T07:25:02.267Z,100315.00
2023-02-08T07:27:29.106Z,100315.81
2023-02-08T07:29:56.009Z,100319.38
2023-02-08T07:32:22.928Z,100308.53
2023-02-08T07:34:49.535Z,100312.59
2023-02-08T07:37:16.422Z,100309.31
2023-02-08T07:39:43.070Z,100313.63
2023-02-08T07:42:10.426Z,100304.50
2023-02-08T07:44:49.190Z,100306.34
2023-02-08T07:47:17.092Z,100305.44
2023-02-08T07:49:43.744Z,100307.06
2023-02-08T07:52:10.480Z,100288.50
2023-02-08T07:54:37.073Z,100308.97
2023-02-08T07:57:03.950Z,100305.69
2023-02-08T07:59:30.686Z,100298.00
2023-02-08T08:01:57.383Z,100305.56
2023-02-08T08:04:24.053Z,100303.03
2023-02-08T08:06:51.578Z,100303.16
2023-02-08T08:09:20.207Z,100293.06
2023-02-08T08:11:46.863Z,100286.31
2023-02-08T08:14:13.714Z,100293.22
2023-02-08T08:16:40.951Z,100292.50
2023-02-08T09:11:16.921Z,100286.31
2023-02-08T09:13:44.016Z,100275.41
2023-02-08T09:16:16.860Z,100277.13
2023-02-08T09:18:44.472Z,100283.06
2023-02-08T09:21:20.056Z,100286.44
2023-02-08T09:23:50.503Z,100278.84
2023-02-08T09:26:19.027Z,100275.38
2023-02-08T09:28:46.177Z,100276.19
2023-02-08T09:31:26.429Z,100277.06
2023-02-08T09:33:55.608Z,100272.78
2023-02-08T09:36:23.578Z,100263.53
2023-02-08T09:38:51.655Z,100274.59
2023-02-08T09:41:54.930Z,100282.22
2023-02-08T09:44:43.048Z,100282.31
2023-02-08T09:47:32.972Z,100279.78
2023-02-08T09:50:20.236Z,100274.78
2023-02-08T09:52:52.593Z,100283.28
2023-02-08T09:55:21.925Z,100275.66
2023-02-08T09:57:51.691Z,100279.00
2023-02-08T10:00:25.163Z,100281.63
2023-02-08T10:02:54.152Z,100276.59
2023-02-08T10:05:24.962Z,100268.97
2023-02-08T10:07:51.785Z,100265.66
2023-02-08T10:10:38.900Z,100275.00
2023-02-08T10:13:19.391Z,100282.66
2023-02-08T10:16:08.361Z,100262.34
2023-02-08T10:18:58.463Z,100273.41
2023-02-08T10:21:37.543Z,100265.88
2023-02-08T10:24:04.181Z,100267.59
2023-02-08T10:26:33.655Z,100260.00
2023-02-08T10:29:47.352Z,100267.63
2023-02-08T10:32:13.892Z,100266.81
2023-02-08T10:34:55.520Z,100261.75
2023-02-08T10:37:34.812Z,100265.16
2023-02-08T10:40:21.035Z,100255.03
2023-02-08T10:42:52.027Z,100247.44
2023-02-08T10:45:30.113Z,100257.59
2023-02-08T10:48:01.787Z,100251.69
2023-02-08T10:50:47.538Z,100249.16
2023-02-08T10:53:17.159Z,100242.41
2023-02-08T10:55:46.285Z,100237.34
2023-02-08T10:58:20.162Z,100250.91
2023-02-08T11:00:49.744Z,100244.97
2023-02-08T11:03:23.107Z,100246.69
2023-02-08T11:05:50.415Z,100239.09
2023-02-08T11:08:22.876Z,100235.72
2023-02-08T11:11:03.976Z,100234.88
2023-02-08T11:13:43.366Z,100224.78
2023-02-08T11:16:13.531Z,100217.19
2023-02-08T11:18:48.406Z,100224.00
2023-02-08T11:21:33.345Z,100214.69
2023-02-08T11:24:03.160Z,100210.44
2023-02-08T11:26:36.575Z,100216.38
2023-02-08T11:29:13.932Z,100212.16
2023-02-08T11:31:56.563Z,100208.78
2023-02-08T11:34:26.410Z,100202.81
2023-02-08T11:36:53.462Z,100201.13
2023-02-08T11:39:27.151Z,100182.44
2023-02-08T11:41:57.528Z,100190.03
2023-02-08T11:44:33.839Z,100196.81
2023-02-08T11:47:06.758Z,100195.97
2023-02-08T11:49:44.775Z,100186.66
2023-02-08T11:52:40.613Z,100185.78
2023-02-08T11:55:19.559Z,100189.13
2023-02-08T11:57:58.472Z,100191.66
2023-02-08T12:00:31.859Z,100189.91
2023-02-08T12:03:08.058Z,100181.44
2023-02-08T12:06:01.006Z,100183.16
2023-02-08T12:08:41.009Z,100179.75
2023-02-08T12:11:29.142Z,100181.47
2023-02-08T12:14:04.454Z,100171.25
2023-02-08T12:16:51.335Z,100172.91
2023-02-08T12:19:33.765Z,100166.09
2023-02-08T12:22:11.129Z,100160.13
2023-02-08T12:24:48.038Z,100168.63
2023-02-08T12:27:31.067Z,100155.03
2023-02-08T12:30:13.995Z,100166.84
2023-02-08T12:33:16.783Z,100158.34
2023-02-08T12:36:04.218Z,100162.75
2023-02-08T12:39:18.901Z,100153.47
2023-02-08T12:42:10.166Z,100150.91
2023-02-08T12:45:03.354Z,100138.00
2023-02-08T12:47:35.627Z,100141.41
2023-02-08T12:50:09.200Z,100140.53
2023-02-08T12:52:39.026Z,100130.44
2023-02-08T12:55:05.692Z,100123.63
2023-02-08T12:57:33.284Z,100111.63
2023-02-08T13:00:15.729Z,100108.97
2023-02-08T13:02:57.312Z,100108.00
2023-02-08T13:05:29.037Z,100105.41
2023-02-08T13:08:03.787Z,100096.88
2023-02-08T13:10:38.528Z,100097.63
2023-02-08T13:13:15.516Z,100099.38
2023-02-08T13:15:52.290Z,100084.94
2023-02-08T13:18:23.344Z,100086.53
2023-02-08T13:20:58.163Z,100088.16
2023-02-08T13:23:29.828Z,100083.06
2023-02-08T13:26:01.267Z,100091.44
2023-02-08T13:28:28.431Z,100079.56
2023-02-08T13:31:07.165Z,100082.94
2023-02-08T13:33:59.326Z,100069.41
2023-02-08T13:36:34.012Z,100074.47
2023-02-08T13:39:02.774Z,100075.19
2023-02-08T13:41:31.057Z,100075.22
2023-02-08T13:44:09.373Z,100060.06
2023-02-08T13:46:48.631Z,100074.44
2023-02-08T13:49:49.062Z,100064.88
2023-02-08T13:52:47.127Z,100058.84
2023-02-08T13:55:33.580Z,100073.41
2023-02-08T13:58:15.387Z,100063.19
2023-02-08T14:00:54.753Z,100072.50
2023-02-08T14:03:29.547Z,100068.19
2023-02-08T14:06:06.310Z,100057.97
2023-02-08T14:08:39.080Z,100064.66
2023-02-08T14:11:11.524Z,100061.19
2023-02-08T14:14:02.694Z,100057.75
2023-02-08T14:16:42.008Z,100064.53
2023-02-08T14:19:20.725Z,100061.13
2023-02-08T14:21:58.599Z,100068.84
2023-02-08T14:24:34.066Z,100061.31
2023-02-08T14:27:11.560Z,100068.03
2023-02-08T14:29:38.519Z,100080.72
2023-02-08T14:32:05.513Z,100073.84
2023-02-08T14:34:35.945Z,100074.66
2023-02-08T14:37:17.846Z,100076.28
2023-02-08T14:39:44.571Z,100075.47
2023-02-08T14:42:13.893Z,100077.97
2023-02-08T14:44:43.489Z,100077.16
2023-02-08T14:47:35.290Z,100074.69
2023-02-08T14:50:15.664Z,100075.50
2023-02-08T14:52:52.730Z,100065.34
2023-02-08T14:55:27.609Z,100061.13
2023-02-08T14:57:58.052Z,100079.00
2023-02-08T15:00:37.887Z,100075.56
2023-02-08T15:03:12.020Z,100084.09
2023-02-08T15:05:48.963Z,100081.50
2023-02-08T15:08:20.976Z,100086.66
2023-02-08T15:10:47.643Z,100084.94
2023-02-08T15:13:26.918Z,100085.78
2023-02-08T15:15:56.413Z,100095.13
2023-02-08T15:18:31.077Z,100088.38
2023-02-08T15:21:03.028Z,100076.59
2023-02-08T15:23:30.869Z,100077.41
2023-02-08T15:26:03.786Z,100079.13
2023-02-08T15:28:33.813Z,100080.84
2023-02-08T15:31:03.008Z,100089.41
2023-02-08T15:33:29.790Z,100094.47
2023-02-08T15:36:05.161Z,100095.47
2023-02-08T15:38:34.292Z,100098.91
2023-02-08T15:41:07.193Z,100095.66
2023-02-08T15:43:35.415Z,100098.34
2023-02-08T15:46:23.609Z,100093.41
2023-02-08T15:48:51.483Z,100106.19
2023-02-08T15:51:23.226Z,100077.53
2023-02-08T15:53:55.771Z,100108.00
2023-02-08T15:56:37.954Z,100108.94
2023-02-08T15:59:14.532Z,100108.97
2023-02-08T16:01:41.258Z,100109.03
2023-02-08T16:04:12.405Z,100115.81
2023-02-08T16:06:45.305Z,100114.13
2023-02-08T16:09:22.145Z,100117.56
2023-02-08T16:11:50.244Z,100132.91
2023-02-08T16:14:19.267Z,100127.81
2023-02-08T16:16:49.919Z,100133.75
2023-02-08T16:19:21.747Z,100132.06
2023-02-08T16:21:48.760Z,100126.19
2023-02-08T16:24:15.346Z,100143.19
2023-02-08T16:26:45.289Z,100133.03
2023-02-08T16:29:21.483Z,100142.38
2023-02-08T16:31:56.188Z,100144.06
2023-02-08T16:34:23.276Z,100139.84
2023-02-08T16:36:52.092Z,100147.50
2023-02-08T16:39:18.726Z,100142.38
2023-02-08T16:42:09.705Z,100145.78
2023-02-08T16:45:01.290Z,100157.69
2023-02-08T16:47:39.779Z,100154.34
2023-02-08T16:50:08.017Z,100152.72
2023-02-08T16:52:35.296Z,100162.91
2023-02-08T16:55:02.789Z,100161.22
2023-02-08T16:57:39.715Z,100170.53
2023-02-08T17:00:32.162Z,100166.31
2023-02-08T17:03:00.288Z,100165.50
2023-02-08T17:05:32.670Z,100179.88
2023-02-08T17:08:00.421Z,100179.91
2023-02-08T17:10:32.350Z,100188.44
2023-02-08T17:13:18.817Z,100193.47
2023-02-08T17:15:48.856Z,100203.66
2023-02-08T17:18:15.640Z,100197.75
2023-02-08T17:20:43.656Z,100204.53
2023-02-08T17:23:11.535Z,100203.66
2023-02-08T17:25:39.050Z,100203.69
2023-02-08T17:28:08.864Z,100204.53
2023-02-08T17:30:39.547Z,100211.31
2023-02-08T17:33:07.507Z,100209.63
2023-02-08T17:35:36.942Z,100193.53
2023-02-08T17:38:04.952Z,100214.69
2023-02-08T17:40:35.076Z,100208.75
2023-02-08T17:43:02.645Z,100211.31
2023-02-08T17:45:29.503Z,100217.22
2023-02-08T17:47:59.851Z,100209.59
2023-02-08T17:50:27.106Z,100224.84
2023-02-08T17:52:54.174Z,100219.75
2023-02-08T17:55:21.461Z,100219.75
2023-02-08T17:57:48.437Z,100226.53
2023-02-08T18:00:20.396Z,100229.06
2023-02-08T18:02:52.771Z,100224.81
2023-02-08T18:05:23.069Z,100223.13
2023-02-08T18:07:51.344Z,100229.84
2023-02-08T18:10:18.241Z,100234.94
2023-02-08T18:12:45.245Z,100229.84
2023-02-08T18:15:14.541Z,100237.50
2023-02-08T18:17:42.289Z,100226.50
2023-02-08T18:20:11.646Z,100234.97
2023-02-08T18:22:38.857Z,100227.31
2023-02-08T18:25:06.157Z,100242.56
2023-02-08T18:27:32.871Z,100242.56
2023-02-08T18:30:00.170Z,100251.88
2023-02-08T18:32:28.134Z,100240.84
2023-02-08T18:34:55.879Z,100249.34
2023-02-08T18:37:23.193Z,100258.59
2023-02-08T18:39:51.309Z,100260.28
2023-02-08T18:42:18.222Z,100269.53
2023-02-08T18:44:45.629Z,100271.22
2023-02-08T18:47:12.426Z,100272.88
2023-02-08T18:49:41.892Z,100277.06
2023-02-08T18:52:11.540Z,100285.50
2023-02-08T18:54:39.699Z,100275.41
2023-02-08T18:57:09.469Z,100289.81
2023-02-08T18:59:39.175Z,100271.16
2023-02-08T19:02:07.849Z,100290.72
2023-02-08T19:04:38.944Z,100279.72
2023-02-08T19:07:06.919Z,100294.09
2023-02-08T19:09:38.314Z,100288.19
2023-02-08T19:12:05.801Z,100280.50
2023-02-08T19:14:32.440Z,100294.97
2023-02-08T19:17:00.099Z,100286.50
2023-02-08T19:19:27.221Z,100277.97
2023-02-08T19:21:53.952Z,100288.09
2023-02-08T19:24:20.853Z,100281.22
2023-02-08T19:26:48.132Z,100305.78
2023-02-08T19:29:17.151Z,100309.94
2023-02-08T19:31:44.600Z,100311.59
2023-02-08T19:34:12.813Z,100319.25
2023-02-08T19:36:49.444Z,100312.41
2023-02-08T19:39:19.969Z,100324.94
2023-02-08T19:41:47.508Z,100329.13
2023-02-08T19:44:17.826Z,100328.25
2023-02-08T19:46:53.705Z,100335.94
2023-02-08T19:49:22.218Z,100338.53
2023-02-08T19:51:48.962Z,100327.56
2023-02-08T19:54:18.089Z,100328.41
2023-02-08T19:56:45.346Z,100331.06
2023-02-08T19:59:19.140Z,100326.84
2023-02-08T20:01:46.338Z,100341.16
2023-02-08T20:04:13.555Z,100335.22
2023-02-08T20:06:40.712Z,100332.75
2023-02-08T20:09:08.344Z,100341.88
2023-02-08T20:11:45.135Z,100344.41
2023-02-08T20:14:22.117Z,100336.81
2023-02-08T20:16:48.999Z,100344.50
2023-02-08T20:19:15.930Z,100340.13
2023-02-08T20:21:44.568Z,100335.88
2023-02-08T20:24:12.071Z,100345.97
2023-02-08T20:26:40.552Z,100346.81
2023-02-08T20:29:08.967Z,100348.59
2023-02-08T20:31:38.129Z,100355.28
2023-02-08T20:34:08.705Z,100354.41
2023-02-08T20:36:40.397Z,100349.44
2023-02-08T20:39:08.939Z,100358.84
2023-02-08T20:41:35.662Z,100355.53
2023-02-08T20:44:02.473Z,100356.28
2023-02-08T20:46:33.796Z,100369.00
2023-02-08T20:49:02.173Z,100370.69
2023-02-08T20:51:29.962Z,100369.75
2023-02-08T20:53:58.202Z,100351.97
2023-02-08T20:56:35.939Z,100371.44
2023-02-08T20:59:08.431Z,100378.09
2023-02-08T21:01:36.452Z,100375.53
2023-02-08T21:04:04.701Z,100381.50
2023-02-08T21:06:34.007Z,100375.59
2023-02-08T21:09:05.407Z,100377.22
2023-02-08T21:11:33.500Z,100378.09
2023-02-08T21:14:00.977Z,100379.91
2023-02-08T21:16:28.172Z,100376.38
2023-02-08T21:18:55.162Z,100382.31
2023-02-08T21:21:21.929Z,100386.66
2023-02-08T21:23:48.822Z,100382.53
2023-02-08T21:26:18.561Z,100392.66
2023-02-08T21:28:46.351Z,100395.25
2023-02-08T21:31:22.011Z,100386.69
2023-02-08T21:33:50.118Z,100396.91
2023-02-08T21:36:19.430Z,100381.72
2023-02-08T21:38:46.638Z,100397.06
2023-02-08T21:41:20.373Z,100391.94
2023-02-08T21:43:48.329Z,100386.06
2023-02-08T21:46:15.529Z,100396.31
2023-02-08T21:49:11.515Z,100384.44
2023-02-08T21:51:57.017Z,100375.16
2023-02-08T21:54:41.436Z,100396.28
2023-02-08T21:57:15.768Z,100381.91
2023-02-08T21:59:43.091Z,100382.78
2023-02-08T22:02:36.604Z,100382.78
2023-02-08T22:05:23.178Z,100386.06
2023-02-08T22:07:54.407Z,100359.84
2023-02-08T22:10:23.525Z,100375.19
2023-02-08T22:12:52.458Z,100367.53
2023-02-08T22:15:21.231Z,100373.47
2023-02-08T22:17:48.022Z,100364.16
2023-02-08T22:20:15.295Z,100371.00
2023-02-08T22:22:41.881Z,100369.31
2023-02-08T22:25:09.096Z,100369.31
2023-02-08T22:27:35.740Z,100365.06
2023-02-08T22:30:02.796Z,100366.66
2023-02-08T22:32:29.476Z,100375.97
2023-02-08T22:34:56.256Z,100374.28
2023-02-08T22:37:23.012Z,100375.09
2023-02-08T22:39:49.692Z,100387.03
2023-02-08T22:42:16.348Z,100370.09
2023-02-08T22:44:44.480Z,100379.44
2023-02-08T22:47:12.772Z,100384.47
2023-02-08T22:49:39.612Z,100382.78
2023-02-08T22:52:08.692Z,100377.72
2023-02-08T22:54:35.827Z,100361.59
2023-02-08T22:57:02.767Z,100372.63
2023-02-08T22:59:29.494Z,100370.03
2023-02-08T23:01:56.213Z,100363.28
2023-02-08T23:04:23.150Z,100372.56
2023-02-08T23:06:50.756Z,100372.63
2023-02-08T23:09:17.820Z,100371.72
2023-02-08T23:11:44.416Z,100384.50
2023-02-08T23:14:11.398Z,100387.16
2023-02-08T23:16:38.480Z,100382.06
2023-02-08T23:19:05.972Z,100379.47
2023-02-08T23:21:32.779Z,100386.22
2023-02-08T23:23:59.526Z,100383.56
2023-02-08T23:26:26.195Z,100367.38
2023-02-08T23:28:54.346Z,100381.00
2023-02-08T23:31:22.087Z,100383.59
2023-02-08T23:33:49.622Z,100379.44
2023-02-08T23:36:19.239Z,100376.94
2023-02-08T23:38:46.314Z,100386.25
2023-02-08T23:41:20.836Z,100376.94
2023-02-08T23:43:48.905Z,100376.13
2023-02-08T23:46:24.158Z,100376.13
2023-02-08T23:48:51.189Z,100371.88
2023-02-08T23:51:20.840Z,100371.94
2023-02-08T23:53:49.031Z,100371.94
2023-02-08T23:56:17.492Z,100366.88
2023-02-08T23:58:46.190Z,100370.28
